sensor_id;sensor_type;location;lat;lon;timestamp;P1;durP1;ratioP1;P2;durP2;ratioP2
62037;SDS011;47991;42.974;12.082;2024-03-23T00:55:23;11.40;;;6.30;;
62037;SDS011;47991;42.974;12.082;2024-03-23T00:57:50;11.70;;;6.40;;
62037;SDS011;47991;42.974;12.082;2024-03-23T01:00:17;12.40;;;6.50;;
62037;SDS011;47991;42.974;12.082;2024-03-23T01:02:45;13.10;;;7.60;;
62037;SDS011;47991;42.974;12.082;2024-03-23T01:05:12;12.40;;;7.70;;
62037;SDS011;47991;42.974;12.082;2024-03-23T01:07:39;12.30;;;7.00;;
62037;SDS011;47991;42.974;12.082;2024-03-23T01:10:06;10.70;;;6.00;;
62037;SDS011;47991;42.974;12.082;2024-03-23T01:12:34;11.60;;;6.90;;
62037;SDS011;47991;42.974;12.082;2024-03-23T01:15:01;13.20;;;6.80;;
62037;SDS011;47991;42.974;12.082;2024-03-23T01:17:29;12.10;;;6.00;;
62037;SDS011;47991;42.974;12.082;2024-03-23T01:19:56;10.80;;;7.10;;
62037;SDS011;47991;42.974;12.082;2024-03-23T01:22:23;12.10;;;6.70;;
62037;SDS011;47991;42.974;12.082;2024-03-23T01:24:51;12.50;;;7.10;;
62037;SDS011;47991;42.974;12.082;2024-03-23T01:27:18;15.70;;;7.10;;
62037;SDS011;47991;42.974;12.082;2024-03-23T01:29:45;11.60;;;6.70;;
62037;SDS011;47991;42.974;12.082;2024-03-23T01:32:12;15.30;;;7.10;;
62037;SDS011;47991;42.974;12.082;2024-03-23T01:34:39;12.10;;;6.50;;
62037;SDS011;47991;42.974;12.082;2024-03-23T01:37:07;12.50;;;7.40;;
62037;SDS011;47991;42.974;12.082;2024-03-23T01:39:34;12.90;;;7.10;;
62037;SDS011;47991;42.974;12.082;2024-03-23T01:42:01;12.70;;;7.70;;
62037;SDS011;47991;42.974;12.082;2024-03-23T01:44:29;12.80;;;7.60;;
62037;SDS011;47991;42.974;12.082;2024-03-23T01:46:57;13.10;;;7.90;;
62037;SDS011;47991;42.974;12.082;2024-03-23T01:49:24;12.40;;;8.00;;
62037;SDS011;47991;42.974;12.082;2024-03-23T01:51:51;13.00;;;7.10;;
62037;SDS011;47991;42.974;12.082;2024-03-23T01:54:18;13.40;;;8.00;;
62037;SDS011;47991;42.974;12.082;2024-03-23T01:56:46;12.50;;;7.20;;
62037;SDS011;47991;42.974;12.082;2024-03-23T01:59:14;12.20;;;7.80;;
62037;SDS011;47991;42.974;12.082;2024-03-23T02:01:41;13.20;;;7.80;;
62037;SDS011;47991;42.974;12.082;2024-03-23T02:04:08;13.20;;;7.00;;
62037;SDS011;47991;42.974;12.082;2024-03-23T02:06:36;15.10;;;7.40;;
62037;SDS011;47991;42.974;12.082;2024-03-23T02:09:03;13.10;;;7.30;;
62037;SDS011;47991;42.974;12.082;2024-03-23T02:11:30;13.10;;;7.80;;
62037;SDS011;47991;42.974;12.082;2024-03-23T02:13:57;14.40;;;8.00;;
62037;SDS011;47991;42.974;12.082;2024-03-23T02:16:25;12.90;;;7.30;;
62037;SDS011;47991;42.974;12.082;2024-03-23T02:18:52;11.80;;;6.90;;
62037;SDS011;47991;42.974;12.082;2024-03-23T02:21:19;14.10;;;7.50;;
62037;SDS011;47991;42.974;12.082;2024-03-23T02:23:46;13.20;;;7.30;;
62037;SDS011;47991;42.974;12.082;2024-03-23T02:26:13;13.20;;;7.30;;
62037;SDS011;47991;42.974;12.082;2024-03-23T02:28:42;11.50;;;7.30;;
62037;SDS011;47991;42.974;12.082;2024-03-23T02:31:09;10.70;;;6.40;;
62037;SDS011;47991;42.974;12.082;2024-03-23T02:33:36;12.10;;;6.60;;
62037;SDS011;47991;42.974;12.082;2024-03-23T02:36:05;11.10;;;6.50;;
62037;SDS011;47991;42.974;12.082;2024-03-23T02:38:32;11.60;;;6.80;;
62037;SDS011;47991;42.974;12.082;2024-03-23T02:41:03;12.60;;;7.60;;
62037;SDS011;47991;42.974;12.082;2024-03-23T02:43:31;11.50;;;6.60;;
62037;SDS011;47991;42.974;12.082;2024-03-23T02:45:58;12.20;;;6.60;;
62037;SDS011;47991;42.974;12.082;2024-03-23T02:48:25;12.60;;;6.70;;
62037;SDS011;47991;42.974;12.082;2024-03-23T02:50:53;11.50;;;6.50;;
62037;SDS011;47991;42.974;12.082;2024-03-23T02:53:20;11.60;;;6.50;;
62037;SDS011;47991;42.974;12.082;2024-03-23T02:55:48;11.20;;;6.60;;
62037;SDS011;47991;42.974;12.082;2024-03-23T02:58:15;11.70;;;6.80;;
62037;SDS011;47991;42.974;12.082;2024-03-23T03:00:42;11.40;;;6.80;;
62037;SDS011;47991;42.974;12.082;2024-03-23T03:03:09;12.20;;;7.20;;
62037;SDS011;47991;42.974;12.082;2024-03-23T03:05:36;12.40;;;6.80;;
62037;SDS011;47991;42.974;12.082;2024-03-23T03:08:03;12.30;;;7.50;;
62037;SDS011;47991;42.974;12.082;2024-03-23T03:10:30;11.40;;;6.70;;
62037;SDS011;47991;42.974;12.082;2024-03-23T03:13:02;14.30;;;8.30;;
62037;SDS011;47991;42.974;12.082;2024-03-23T03:15:29;14.00;;;7.80;;
62037;SDS011;47991;42.974;12.082;2024-03-23T03:17:56;12.60;;;7.00;;
62037;SDS011;47991;42.974;12.082;2024-03-23T03:20:23;14.30;;;8.10;;
62037;SDS011;47991;42.974;12.082;2024-03-23T03:22:50;11.60;;;6.70;;
62037;SDS011;47991;42.974;12.082;2024-03-23T03:25:20;15.30;;;7.70;;
62037;SDS011;47991;42.974;12.082;2024-03-23T03:27:47;13.60;;;8.00;;
62037;SDS011;47991;42.974;12.082;2024-03-23T03:30:14;12.40;;;7.60;;
62037;SDS011;47991;42.974;12.082;2024-03-23T03:32:42;14.20;;;8.40;;
62037;SDS011;47991;42.974;12.082;2024-03-23T03:35:09;13.20;;;7.80;;
62037;SDS011;47991;42.974;12.082;2024-03-23T03:37:36;13.20;;;7.80;;
62037;SDS011;47991;42.974;12.082;2024-03-23T03:40:04;19.30;;;8.90;;
62037;SDS011;47991;42.974;12.082;2024-03-23T03:42:31;14.90;;;8.30;;
62037;SDS011;47991;42.974;12.082;2024-03-23T03:44:58;12.40;;;7.70;;
62037;SDS011;47991;42.974;12.082;2024-03-23T03:47:25;13.10;;;7.30;;
62037;SDS011;47991;42.974;12.082;2024-03-23T03:49:52;12.20;;;7.30;;
62037;SDS011;47991;42.974;12.082;2024-03-23T03:52:19;13.20;;;7.40;;
62037;SDS011;47991;42.974;12.082;2024-03-23T03:54:46;15.70;;;8.70;;
62037;SDS011;47991;42.974;12.082;2024-03-23T03:57:13;12.70;;;7.90;;
62037;SDS011;47991;42.974;12.082;2024-03-23T03:59:40;13.60;;;7.90;;
62037;SDS011;47991;42.974;12.082;2024-03-23T04:02:07;13.30;;;7.90;;
62037;SDS011;47991;42.974;12.082;2024-03-23T04:04:34;12.60;;;7.00;;
62037;SDS011;47991;42.974;12.082;2024-03-23T04:07:01;12.10;;;7.40;;
62037;SDS011;47991;42.974;12.082;2024-03-23T04:09:28;15.30;;;7.80;;
62037;SDS011;47991;42.974;12.082;2024-03-23T04:11:57;12.90;;;7.70;;
62037;SDS011;47991;42.974;12.082;2024-03-23T04:14:24;15.10;;;7.90;;
62037;SDS011;47991;42.974;12.082;2024-03-23T04:16:51;16.40;;;8.80;;
62037;SDS011;47991;42.974;12.082;2024-03-23T04:19:17;13.50;;;7.80;;
62037;SDS011;47991;42.974;12.082;2024-03-23T04:21:44;13.40;;;8.40;;
62037;SDS011;47991;42.974;12.082;2024-03-23T04:24:11;14.50;;;8.60;;
62037;SDS011;47991;42.974;12.082;2024-03-23T04:26:41;13.70;;;8.60;;
62037;SDS011;47991;42.974;12.082;2024-03-23T04:29:09;15.30;;;8.00;;
62037;SDS011;47991;42.974;12.082;2024-03-23T04:31:36;14.30;;;8.00;;
62037;SDS011;47991;42.974;12.082;2024-03-23T04:34:03;12.40;;;7.20;;
62037;SDS011;47991;42.974;12.082;2024-03-23T04:36:30;13.10;;;7.40;;
62037;SDS011;47991;42.974;12.082;2024-03-23T04:38:58;15.10;;;8.00;;
62037;SDS011;47991;42.974;12.082;2024-03-23T04:41:26;12.80;;;7.50;;
62037;SDS011;47991;42.974;12.082;2024-03-23T04:43:53;14.40;;;7.50;;
62037;SDS011;47991;42.974;12.082;2024-03-23T04:46:21;14.70;;;7.30;;
62037;SDS011;47991;42.974;12.082;2024-03-23T04:48:48;12.90;;;7.80;;
62037;SDS011;47991;42.974;12.082;2024-03-23T04:51:22;12.60;;;7.20;;
62037;SDS011;47991;42.974;12.082;2024-03-23T04:53:50;13.60;;;7.80;;
62037;SDS011;47991;42.974;12.082;2024-03-23T04:56:17;16.70;;;8.30;;
62037;SDS011;47991;42.974;12.082;2024-03-23T04:58:45;14.40;;;8.30;;
62037;SDS011;47991;42.974;12.082;2024-03-23T05:01:12;14.80;;;8.60;;
62037;SDS011;47991;42.974;12.082;2024-03-23T05:03:38;14.30;;;8.80;;
62037;SDS011;47991;42.974;12.082;2024-03-23T05:06:06;17.30;;;9.00;;
62037;SDS011;47991;42.974;12.082;2024-03-23T05:08:33;16.00;;;9.40;;
62037;SDS011;47991;42.974;12.082;2024-03-23T05:11:00;14.40;;;9.00;;
62037;SDS011;47991;42.974;12.082;2024-03-23T05:13:27;14.70;;;8.70;;
62037;SDS011;47991;42.974;12.082;2024-03-23T05:15:54;15.30;;;8.90;;
62037;SDS011;47991;42.974;12.082;2024-03-23T05:18:23;15.50;;;9.30;;
62037;SDS011;47991;42.974;12.082;2024-03-23T05:20:56;13.20;;;8.30;;
62037;SDS011;47991;42.974;12.082;2024-03-23T05:23:24;16.50;;;9.00;;
62037;SDS011;47991;42.974;12.082;2024-03-23T05:25:52;14.00;;;8.80;;
62037;SDS011;47991;42.974;12.082;2024-03-23T05:28:20;16.00;;;9.10;;
62037;SDS011;47991;42.974;12.082;2024-03-23T05:30:51;14.90;;;9.40;;
62037;SDS011;47991;42.974;12.082;2024-03-23T05:33:18;17.80;;;9.60;;
62037;SDS011;47991;42.974;12.082;2024-03-23T05:35:46;15.80;;;10.30;;
62037;SDS011;47991;42.974;12.082;2024-03-23T05:38:22;19.90;;;9.80;;
62037;SDS011;47991;42.974;12.082;2024-03-23T05:40:56;15.80;;;10.00;;
62037;SDS011;47991;42.974;12.082;2024-03-23T05:43:23;15.20;;;8.90;;
62037;SDS011;47991;42.974;12.082;2024-03-23T05:45:54;13.40;;;8.70;;
62037;SDS011;47991;42.974;12.082;2024-03-23T05:48:22;14.20;;;8.90;;
62037;SDS011;47991;42.974;12.082;2024-03-23T05:50:50;14.50;;;8.90;;
62037;SDS011;47991;42.974;12.082;2024-03-23T05:53:17;16.00;;;9.30;;
62037;SDS011;47991;42.974;12.082;2024-03-23T05:55:49;14.80;;;8.80;;
62037;SDS011;47991;42.974;12.082;2024-03-23T05:58:17;14.20;;;8.60;;
62037;SDS011;47991;42.974;12.082;2024-03-23T06:00:45;17.90;;;9.90;;
62037;SDS011;47991;42.974;12.082;2024-03-23T06:03:12;16.50;;;9.70;;
62037;SDS011;47991;42.974;12.082;2024-03-23T06:05:39;17.40;;;9.50;;
62037;SDS011;47991;42.974;12.082;2024-03-23T06:08:06;14.30;;;8.30;;
62037;SDS011;47991;42.974;12.082;2024-03-23T06:10:36;12.60;;;8.00;;
62037;SDS011;47991;42.974;12.082;2024-03-23T06:13:03;14.40;;;9.20;;
62037;SDS011;47991;42.974;12.082;2024-03-23T06:15:31;12.00;;;7.10;;
62037;SDS011;47991;42.974;12.082;2024-03-23T06:17:58;11.10;;;6.80;;
62037;SDS011;47991;42.974;12.082;2024-03-23T06:20:25;10.90;;;7.00;;
62037;SDS011;47991;42.974;12.082;2024-03-23T06:22:53;11.80;;;7.30;;
62037;SDS011;47991;42.974;12.082;2024-03-23T06:25:20;12.10;;;7.30;;
62037;SDS011;47991;42.974;12.082;2024-03-23T06:27:47;12.20;;;7.60;;
62037;SDS011;47991;42.974;12.082;2024-03-23T06:30:14;10.50;;;6.80;;
62037;SDS011;47991;42.974;12.082;2024-03-23T06:32:42;10.90;;;6.60;;
62037;SDS011;47991;42.974;12.082;2024-03-23T06:35:09;12.30;;;7.90;;
62037;SDS011;47991;42.974;12.082;2024-03-23T06:37:36;12.70;;;8.40;;
62037;SDS011;47991;42.974;12.082;2024-03-23T06:40:03;10.50;;;6.40;;
62037;SDS011;47991;42.974;12.082;2024-03-23T06:42:33;11.90;;;6.80;;
62037;SDS011;47991;42.974;12.082;2024-03-23T06:45:00;9.70;;;6.10;;
62037;SDS011;47991;42.974;12.082;2024-03-23T06:47:27;10.80;;;6.60;;
62037;SDS011;47991;42.974;12.082;2024-03-23T06:49:54;12.10;;;6.60;;
62037;SDS011;47991;42.974;12.082;2024-03-23T06:52:26;12.10;;;7.00;;
62037;SDS011;47991;42.974;12.082;2024-03-23T06:54:54;11.00;;;6.00;;
62037;SDS011;47991;42.974;12.082;2024-03-23T06:57:21;12.80;;;7.40;;
62037;SDS011;47991;42.974;12.082;2024-03-23T06:59:48;15.70;;;6.70;;
62037;SDS011;47991;42.974;12.082;2024-03-23T07:02:16;11.20;;;7.10;;
62037;SDS011;47991;42.974;12.082;2024-03-23T07:04:43;12.00;;;7.20;;
62037;SDS011;47991;42.974;12.082;2024-03-23T07:07:11;14.50;;;8.80;;
62037;SDS011;47991;42.974;12.082;2024-03-23T07:09:38;15.20;;;9.00;;
62037;SDS011;47991;42.974;12.082;2024-03-23T07:12:05;16.40;;;9.40;;
62037;SDS011;47991;42.974;12.082;2024-03-23T07:14:32;15.50;;;8.90;;
62037;SDS011;47991;42.974;12.082;2024-03-23T07:16:59;14.80;;;8.80;;
62037;SDS011;47991;42.974;12.082;2024-03-23T07:19:26;14.70;;;9.00;;
62037;SDS011;47991;42.974;12.082;2024-03-23T07:21:55;14.80;;;9.10;;
62037;SDS011;47991;42.974;12.082;2024-03-23T07:24:22;14.40;;;8.80;;
62037;SDS011;47991;42.974;12.082;2024-03-23T07:26:49;13.70;;;9.20;;
62037;SDS011;47991;42.974;12.082;2024-03-23T07:29:18;13.90;;;8.80;;
62037;SDS011;47991;42.974;12.082;2024-03-23T07:31:45;16.60;;;9.60;;
62037;SDS011;47991;42.974;12.082;2024-03-23T07:34:12;14.10;;;9.80;;
62037;SDS011;47991;42.974;12.082;2024-03-23T07:36:40;15.20;;;9.80;;
62037;SDS011;47991;42.974;12.082;2024-03-23T07:39:07;14.70;;;9.90;;
62037;SDS011;47991;42.974;12.082;2024-03-23T07:41:34;17.60;;;10.00;;
62037;SDS011;47991;42.974;12.082;2024-03-23T07:44:02;14.00;;;9.00;;
62037;SDS011;47991;42.974;12.082;2024-03-23T07:46:29;14.90;;;9.30;;
62037;SDS011;47991;42.974;12.082;2024-03-23T07:48:56;15.50;;;9.50;;
62037;SDS011;47991;42.974;12.082;2024-03-23T07:51:24;12.60;;;8.70;;
62037;SDS011;47991;42.974;12.082;2024-03-23T07:53:51;13.50;;;8.20;;
62037;SDS011;47991;42.974;12.082;2024-03-23T07:56:21;12.00;;;8.90;;
62037;SDS011;47991;42.974;12.082;2024-03-23T07:58:50;15.10;;;10.10;;
62037;SDS011;47991;42.974;12.082;2024-03-23T08:01:17;13.70;;;8.70;;
62037;SDS011;47991;42.974;12.082;2024-03-23T08:03:44;14.40;;;8.70;;
62037;SDS011;47991;42.974;12.082;2024-03-23T08:06:13;13.50;;;8.70;;
62037;SDS011;47991;42.974;12.082;2024-03-23T08:08:45;16.40;;;9.30;;
62037;SDS011;47991;42.974;12.082;2024-03-23T08:11:12;14.00;;;9.40;;
62037;SDS011;47991;42.974;12.082;2024-03-23T08:13:41;15.30;;;9.40;;
62037;SDS011;47991;42.974;12.082;2024-03-23T08:16:09;14.70;;;9.40;;
62037;SDS011;47991;42.974;12.082;2024-03-23T08:18:36;13.80;;;9.10;;
62037;SDS011;47991;42.974;12.082;2024-03-23T08:21:04;11.70;;;7.80;;
62037;SDS011;47991;42.974;12.082;2024-03-23T08:23:32;11.60;;;6.80;;
62037;SDS011;47991;42.974;12.082;2024-03-23T08:26:05;12.10;;;7.50;;
62037;SDS011;47991;42.974;12.082;2024-03-23T08:28:37;13.70;;;8.90;;
62037;SDS011;47991;42.974;12.082;2024-03-23T08:31:08;10.20;;;6.40;;
62037;SDS011;47991;42.974;12.082;2024-03-23T08:33:36;11.70;;;6.10;;
62037;SDS011;47991;42.974;12.082;2024-03-23T08:36:06;9.60;;;5.30;;
62037;SDS011;47991;42.974;12.082;2024-03-23T08:38:35;9.30;;;5.30;;
62037;SDS011;47991;42.974;12.082;2024-03-23T08:41:06;10.70;;;5.60;;
62037;SDS011;47991;42.974;12.082;2024-03-23T08:43:38;9.30;;;5.30;;
62037;SDS011;47991;42.974;12.082;2024-03-23T08:48:34;10.00;;;4.90;;
62037;SDS011;47991;42.974;12.082;2024-03-23T08:51:03;10.00;;;5.20;;
62037;SDS011;47991;42.974;12.082;2024-03-23T08:53:31;9.60;;;5.40;;
62037;SDS011;47991;42.974;12.082;2024-03-23T08:55:59;9.40;;;5.60;;
62037;SDS011;47991;42.974;12.082;2024-03-23T08:58:30;7.60;;;3.60;;
62037;SDS011;47991;42.974;12.082;2024-03-23T09:01:18;11.40;;;4.80;;
62037;SDS011;47991;42.974;12.082;2024-03-23T09:03:45;7.50;;;3.90;;
62037;SDS011;47991;42.974;12.082;2024-03-23T09:06:14;7.80;;;4.50;;
62037;SDS011;47991;42.974;12.082;2024-03-23T09:08:41;10.00;;;4.80;;
62037;SDS011;47991;42.974;12.082;2024-03-23T09:11:12;7.20;;;3.90;;
62037;SDS011;47991;42.974;12.082;2024-03-23T09:13:40;6.80;;;3.50;;
62037;SDS011;47991;42.974;12.082;2024-03-23T09:16:09;6.10;;;3.30;;
62037;SDS011;47991;42.974;12.082;2024-03-23T09:18:36;8.00;;;3.80;;
62037;SDS011;47991;42.974;12.082;2024-03-23T09:21:04;8.30;;;4.10;;
62037;SDS011;47991;42.974;12.082;2024-03-23T09:23:43;6.10;;;3.00;;
62037;SDS011;47991;42.974;12.082;2024-03-23T09:26:10;8.20;;;3.50;;
62037;SDS011;47991;42.974;12.082;2024-03-23T09:28:37;6.70;;;3.60;;
62037;SDS011;47991;42.974;12.082;2024-03-23T09:33:32;7.00;;;3.60;;
62037;SDS011;47991;42.974;12.082;2024-03-23T09:36:04;7.70;;;3.60;;
62037;SDS011;47991;42.974;12.082;2024-03-23T09:38:31;5.50;;;2.90;;
62037;SDS011;47991;42.974;12.082;2024-03-23T09:40:58;7.20;;;3.20;;
62037;SDS011;47991;42.974;12.082;2024-03-23T09:43:26;7.60;;;3.60;;
62037;SDS011;47991;42.974;12.082;2024-03-23T09:45:53;7.20;;;3.80;;
62037;SDS011;47991;42.974;12.082;2024-03-23T09:48:20;6.10;;;2.50;;
62037;SDS011;47991;42.974;12.082;2024-03-23T09:50:47;5.80;;;3.00;;
62037;SDS011;47991;42.974;12.082;2024-03-23T09:53:15;5.00;;;2.80;;
62037;SDS011;47991;42.974;12.082;2024-03-23T09:55:43;5.60;;;2.60;;
62037;SDS011;47991;42.974;12.082;2024-03-23T09:58:16;5.70;;;2.70;;
62037;SDS011;47991;42.974;12.082;2024-03-23T10:00:44;5.70;;;2.80;;
62037;SDS011;47991;42.974;12.082;2024-03-23T10:03:12;5.50;;;2.90;;
62037;SDS011;47991;42.974;12.082;2024-03-23T10:05:40;6.00;;;3.00;;
62037;SDS011;47991;42.974;12.082;2024-03-23T10:10:43;6.90;;;3.30;;
62037;SDS011;47991;42.974;12.082;2024-03-23T10:13:23;7.40;;;3.40;;
62037;SDS011;47991;42.974;12.082;2024-03-23T10:15:55;6.20;;;3.00;;
62037;SDS011;47991;42.974;12.082;2024-03-23T10:18:24;7.80;;;3.30;;
62037;SDS011;47991;42.974;12.082;2024-03-23T10:21:06;7.60;;;3.80;;
62037;SDS011;47991;42.974;12.082;2024-03-23T10:23:41;7.60;;;3.70;;
62037;SDS011;47991;42.974;12.082;2024-03-23T10:26:19;8.60;;;3.50;;
62037;SDS011;47991;42.974;12.082;2024-03-23T10:31:24;6.70;;;3.40;;
62037;SDS011;47991;42.974;12.082;2024-03-23T10:33:51;6.50;;;3.10;;
62037;SDS011;47991;42.974;12.082;2024-03-23T10:36:22;7.50;;;3.70;;
62037;SDS011;47991;42.974;12.082;2024-03-23T10:38:50;6.50;;;3.20;;
62037;SDS011;47991;42.974;12.082;2024-03-23T10:41:18;6.70;;;3.80;;
62037;SDS011;47991;42.974;12.082;2024-03-23T10:43:46;6.70;;;3.50;;
62037;SDS011;47991;42.974;12.082;2024-03-23T10:46:14;6.30;;;3.40;;
62037;SDS011;47991;42.974;12.082;2024-03-23T10:48:42;8.80;;;4.10;;
62037;SDS011;47991;42.974;12.082;2024-03-23T10:51:10;8.20;;;4.00;;
62037;SDS011;47991;42.974;12.082;2024-03-23T10:53:38;7.90;;;4.00;;
62037;SDS011;47991;42.974;12.082;2024-03-23T10:56:06;6.60;;;3.40;;
62037;SDS011;47991;42.974;12.082;2024-03-23T10:58:38;7.70;;;4.30;;
62037;SDS011;47991;42.974;12.082;2024-03-23T11:01:10;6.10;;;2.90;;
62037;SDS011;47991;42.974;12.082;2024-03-23T11:03:38;7.90;;;3.50;;
62037;SDS011;47991;42.974;12.082;2024-03-23T11:06:11;6.20;;;2.90;;
62037;SDS011;47991;42.974;12.082;2024-03-23T11:09:01;6.90;;;3.00;;
62037;SDS011;47991;42.974;12.082;2024-03-23T11:11:29;8.80;;;3.90;;
62037;SDS011;47991;42.974;12.082;2024-03-23T11:13:59;7.60;;;3.60;;
62037;SDS011;47991;42.974;12.082;2024-03-23T11:16:26;6.30;;;3.10;;
62037;SDS011;47991;42.974;12.082;2024-03-23T11:21:54;6.00;;;3.50;;
62037;SDS011;47991;42.974;12.082;2024-03-23T11:24:22;7.30;;;3.30;;
62037;SDS011;47991;42.974;12.082;2024-03-23T11:26:48;7.10;;;3.60;;
62037;SDS011;47991;42.974;12.082;2024-03-23T11:29:16;8.20;;;3.80;;
62037;SDS011;47991;42.974;12.082;2024-03-23T11:31:48;7.00;;;3.80;;
62037;SDS011;47991;42.974;12.082;2024-03-23T11:34:16;8.80;;;4.00;;
62037;SDS011;47991;42.974;12.082;2024-03-23T11:36:44;7.20;;;3.50;;
62037;SDS011;47991;42.974;12.082;2024-03-23T11:44:25;6.80;;;3.40;;
62037;SDS011;47991;42.974;12.082;2024-03-23T11:46:53;6.40;;;3.20;;
62037;SDS011;47991;42.974;12.082;2024-03-23T11:49:26;7.40;;;3.40;;
62037;SDS011;47991;42.974;12.082;2024-03-23T11:51:55;6.90;;;3.60;;
62037;SDS011;47991;42.974;12.082;2024-03-23T11:54:23;7.50;;;3.20;;
62037;SDS011;47991;42.974;12.082;2024-03-23T11:56:57;9.00;;;3.40;;
62037;SDS011;47991;42.974;12.082;2024-03-23T11:59:34;6.40;;;2.60;;
62037;SDS011;47991;42.974;12.082;2024-03-23T12:02:08;5.60;;;2.90;;
62037;SDS011;47991;42.974;12.082;2024-03-23T12:04:42;6.40;;;2.70;;
62037;SDS011;47991;42.974;12.082;2024-03-23T12:07:18;6.00;;;2.40;;
62037;SDS011;47991;42.974;12.082;2024-03-23T12:09:47;5.40;;;2.30;;
62037;SDS011;47991;42.974;12.082;2024-03-23T12:12:35;4.30;;;2.20;;
62037;SDS011;47991;42.974;12.082;2024-03-23T12:15:06;4.20;;;1.90;;
62037;SDS011;47991;42.974;12.082;2024-03-23T12:17:35;6.20;;;2.10;;
62037;SDS011;47991;42.974;12.082;2024-03-23T12:20:03;4.60;;;2.00;;
62037;SDS011;47991;42.974;12.082;2024-03-23T12:22:30;3.30;;;1.80;;
62037;SDS011;47991;42.974;12.082;2024-03-23T12:24:57;4.50;;;2.10;;
62037;SDS011;47991;42.974;12.082;2024-03-23T12:27:24;3.30;;;2.00;;
62037;SDS011;47991;42.974;12.082;2024-03-23T12:29:51;8.10;;;1.90;;
62037;SDS011;47991;42.974;12.082;2024-03-23T12:32:18;2.90;;;1.80;;
62037;SDS011;47991;42.974;12.082;2024-03-23T12:34:45;4.10;;;2.00;;
62037;SDS011;47991;42.974;12.082;2024-03-23T12:37:13;3.90;;;1.80;;
62037;SDS011;47991;42.974;12.082;2024-03-23T12:39:41;4.10;;;1.90;;
62037;SDS011;47991;42.974;12.082;2024-03-23T12:42:07;3.10;;;1.80;;
62037;SDS011;47991;42.974;12.082;2024-03-23T12:44:34;4.20;;;1.70;;
62037;SDS011;47991;42.974;12.082;2024-03-23T12:47:01;4.90;;;2.00;;
62037;SDS011;47991;42.974;12.082;2024-03-23T12:49:28;4.80;;;1.90;;
62037;SDS011;47991;42.974;12.082;2024-03-23T12:51:56;4.90;;;1.70;;
62037;SDS011;47991;42.974;12.082;2024-03-23T12:54:22;2.90;;;1.70;;
62037;SDS011;47991;42.974;12.082;2024-03-23T12:56:50;4.90;;;1.90;;
62037;SDS011;47991;42.974;12.082;2024-03-23T12:59:17;2.70;;;1.50;;
62037;SDS011;47991;42.974;12.082;2024-03-23T13:01:45;4.20;;;2.00;;
62037;SDS011;47991;42.974;12.082;2024-03-23T13:04:12;5.30;;;1.90;;
62037;SDS011;47991;42.974;12.082;2024-03-23T13:06:39;4.10;;;1.70;;
62037;SDS011;47991;42.974;12.082;2024-03-23T13:09:06;2.20;;;1.60;;
62037;SDS011;47991;42.974;12.082;2024-03-23T13:11:33;3.60;;;1.50;;
62037;SDS011;47991;42.974;12.082;2024-03-23T13:14:00;3.00;;;1.50;;
62037;SDS011;47991;42.974;12.082;2024-03-23T13:16:27;3.20;;;1.70;;
62037;SDS011;47991;42.974;12.082;2024-03-23T13:18:54;4.00;;;1.50;;
62037;SDS011;47991;42.974;12.082;2024-03-23T13:21:21;3.90;;;1.50;;
62037;SDS011;47991;42.974;12.082;2024-03-23T13:23:47;2.90;;;1.60;;
62037;SDS011;47991;42.974;12.082;2024-03-23T13:26:16;3.40;;;1.50;;
62037;SDS011;47991;42.974;12.082;2024-03-23T13:28:43;3.40;;;1.40;;
62037;SDS011;47991;42.974;12.082;2024-03-23T13:31:11;2.20;;;1.30;;
62037;SDS011;47991;42.974;12.082;2024-03-23T13:33:37;2.20;;;1.50;;
62037;SDS011;47991;42.974;12.082;2024-03-23T13:36:04;3.50;;;1.70;;
62037;SDS011;47991;42.974;12.082;2024-03-23T13:38:32;2.20;;;1.20;;
62037;SDS011;47991;42.974;12.082;2024-03-23T13:40:59;3.30;;;1.50;;
62037;SDS011;47991;42.974;12.082;2024-03-23T13:43:27;3.30;;;1.50;;
62037;SDS011;47991;42.974;12.082;2024-03-23T13:45:58;2.80;;;1.40;;
62037;SDS011;47991;42.974;12.082;2024-03-23T13:48:28;3.80;;;1.50;;
62037;SDS011;47991;42.974;12.082;2024-03-23T13:51:03;2.00;;;1.20;;
62037;SDS011;47991;42.974;12.082;2024-03-23T13:53:31;2.40;;;1.40;;
62037;SDS011;47991;42.974;12.082;2024-03-23T13:55:59;5.10;;;1.50;;
62037;SDS011;47991;42.974;12.082;2024-03-23T13:58:26;3.00;;;1.40;;
62037;SDS011;47991;42.974;12.082;2024-03-23T14:00:53;5.10;;;1.50;;
62037;SDS011;47991;42.974;12.082;2024-03-23T14:03:23;2.50;;;1.70;;
62037;SDS011;47991;42.974;12.082;2024-03-23T14:05:50;4.30;;;1.40;;
62037;SDS011;47991;42.974;12.082;2024-03-23T14:08:19;3.20;;;1.50;;
62037;SDS011;47991;42.974;12.082;2024-03-23T14:10:48;5.00;;;2.30;;
62037;SDS011;47991;42.974;12.082;2024-03-23T14:13:15;6.00;;;1.90;;
62037;SDS011;47991;42.974;12.082;2024-03-23T14:15:41;4.60;;;2.30;;
62037;SDS011;47991;42.974;12.082;2024-03-23T14:18:08;4.20;;;2.20;;
62037;SDS011;47991;42.974;12.082;2024-03-23T14:20:35;4.50;;;1.90;;
62037;SDS011;47991;42.974;12.082;2024-03-23T14:23:02;3.60;;;2.00;;
62037;SDS011;47991;42.974;12.082;2024-03-23T14:25:29;5.70;;;2.00;;
62037;SDS011;47991;42.974;12.082;2024-03-23T14:27:56;4.00;;;2.20;;
62037;SDS011;47991;42.974;12.082;2024-03-23T14:30:24;3.00;;;1.70;;
62037;SDS011;47991;42.974;12.082;2024-03-23T14:32:51;3.60;;;2.00;;
62037;SDS011;47991;42.974;12.082;2024-03-23T14:35:18;3.20;;;1.80;;
62037;SDS011;47991;42.974;12.082;2024-03-23T14:37:44;4.20;;;1.70;;
62037;SDS011;47991;42.974;12.082;2024-03-23T14:40:13;3.80;;;1.60;;
62037;SDS011;47991;42.974;12.082;2024-03-23T14:42:40;5.00;;;1.90;;
62037;SDS011;47991;42.974;12.082;2024-03-23T14:45:08;7.30;;;2.00;;
62037;SDS011;47991;42.974;12.082;2024-03-23T14:47:35;6.80;;;2.00;;
62037;SDS011;47991;42.974;12.082;2024-03-23T14:50:02;5.70;;;2.20;;
62037;SDS011;47991;42.974;12.082;2024-03-23T14:52:30;4.90;;;2.10;;
62037;SDS011;47991;42.974;12.082;2024-03-23T14:54:57;5.90;;;2.10;;
62037;SDS011;47991;42.974;12.082;2024-03-23T14:57:23;4.60;;;1.90;;
62037;SDS011;47991;42.974;12.082;2024-03-23T14:59:50;5.30;;;2.20;;
62037;SDS011;47991;42.974;12.082;2024-03-23T15:02:18;5.10;;;2.10;;
62037;SDS011;47991;42.974;12.082;2024-03-23T15:04:45;4.00;;;2.10;;
62037;SDS011;47991;42.974;12.082;2024-03-23T15:07:12;4.70;;;2.10;;
62037;SDS011;47991;42.974;12.082;2024-03-23T15:09:38;5.60;;;2.10;;
62037;SDS011;47991;42.974;12.082;2024-03-23T15:12:05;7.80;;;2.70;;
62037;SDS011;47991;42.974;12.082;2024-03-23T15:14:33;5.10;;;2.40;;
62037;SDS011;47991;42.974;12.082;2024-03-23T15:17:01;5.40;;;2.20;;
62037;SDS011;47991;42.974;12.082;2024-03-23T15:19:31;6.20;;;2.70;;
62037;SDS011;47991;42.974;12.082;2024-03-23T15:21:58;9.10;;;2.90;;
62037;SDS011;47991;42.974;12.082;2024-03-23T15:24:25;7.80;;;2.90;;
62037;SDS011;47991;42.974;12.082;2024-03-23T15:26:52;7.50;;;2.70;;
62037;SDS011;47991;42.974;12.082;2024-03-23T15:29:20;5.50;;;2.70;;
62037;SDS011;47991;42.974;12.082;2024-03-23T15:31:48;8.20;;;3.40;;
62037;SDS011;47991;42.974;12.082;2024-03-23T15:36:48;7.00;;;2.70;;
62037;SDS011;47991;42.974;12.082;2024-03-23T15:39:17;7.00;;;3.00;;
62037;SDS011;47991;42.974;12.082;2024-03-23T15:41:45;5.70;;;2.60;;
62037;SDS011;47991;42.974;12.082;2024-03-23T15:44:12;9.90;;;3.10;;
62037;SDS011;47991;42.974;12.082;2024-03-23T15:46:39;7.30;;;3.00;;
62037;SDS011;47991;42.974;12.082;2024-03-23T15:49:06;7.20;;;2.90;;